createdAt,value
2023-12-30T00:00:31.125Z,99258.72
2023-12-30T00:05:32.534Z,99264.88
2023-12-30T00:10:33.912Z,99258.03
2023-12-30T00:15:35.248Z,99273.94
2023-12-30T00:20:36.553Z,99273.44
2023-12-30T00:25:37.968Z,99263.47
2023-12-30T00:30:39.434Z,99272.19
2023-12-30T00:35:41.092Z,99272.63
2023-12-30T00:40:42.930Z,99278.66
2023-12-30T00:45:44.217Z,99269.75
2023-12-30T00:50:49.883Z,99248.69
2023-12-30T00:55:51.158Z,99257.84
2023-12-30T01:00:52.578Z,99246.44
2023-12-30T01:05:53.905Z,99234.28
2023-12-30T01:10:55.595Z,99228.25
2023-12-30T01:15:56.957Z,99239.91
2023-12-30T01:20:58.271Z,99256.81
2023-12-30T01:25:59.743Z,99263.47
2023-12-30T01:31:01.125Z,99267.03
2023-12-30T01:36:02.576Z,99282.72
2023-12-30T01:41:03.886Z,99269.91
2023-12-30T01:46:05.936Z,99284.22
2023-12-30T01:51:23.103Z,99293.72
2023-12-30T01:56:26.638Z,99299.09
2023-12-30T02:01:28.020Z,99297.09
2023-12-30T02:06:29.416Z,99301.72
2023-12-30T02:11:30.713Z,99307.06
2023-12-30T02:16:32.083Z,99317.53
2023-12-30T02:21:33.474Z,99318.88
2023-12-30T02:26:34.897Z,99343.28
2023-12-30T02:31:36.648Z,99342.22
2023-12-30T02:36:38.008Z,99339.03
2023-12-30T02:41:39.349Z,99327.31
2023-12-30T02:46:40.659Z,99327.19
2023-12-30T02:51:41.958Z,99318.75
2023-12-30T02:56:43.275Z,99324.34
2023-12-30T03:01:44.734Z,99320.78
2023-12-30T03:06:46.566Z,99325.53
2023-12-30T03:11:48.130Z,99330.50
2023-12-30T03:16:49.438Z,99320.50
2023-12-30T03:21:50.763Z,99321.03
2023-12-30T03:26:52.273Z,99327.69
2023-12-30T03:31:53.744Z,99333.78
2023-12-30T03:36:55.339Z,99324.91
2023-12-30T03:41:57.623Z,99325.41
2023-12-30T03:46:58.936Z,99319.56
2023-12-30T03:52:00.305Z,99331.59
2023-12-30T03:57:01.690Z,99327.88
2023-12-30T04:02:03.081Z,99337.38
2023-12-30T04:07:04.453Z,99346.81
2023-12-30T04:12:05.887Z,99353.97
2023-12-30T04:17:07.192Z,99360.88
2023-12-30T04:22:08.589Z,99375.53
2023-12-30T04:27:10.338Z,99364.78
2023-12-30T04:32:12.112Z,99352.13
2023-12-30T04:37:14.277Z,99380.53
2023-12-30T04:42:16.149Z,99398.19
2023-12-30T04:47:17.438Z,99400.03
2023-12-30T04:52:18.776Z,99406.44
2023-12-30T04:57:20.126Z,99405.66
2023-12-30T05:02:21.408Z,99420.53
2023-12-30T05:07:22.736Z,99442.00
2023-12-30T05:12:24.140Z,99440.94
2023-12-30T05:17:26.703Z,99445.41
2023-12-30T05:22:28.077Z,99452.31
2023-12-30T05:27:29.378Z,99453.31
2023-12-30T05:32:30.750Z,99464.41
2023-12-30T05:37:32.300Z,99448.44
2023-12-30T05:42:33.688Z,99451.75
2023-12-30T05:47:35.049Z,99470.47
2023-12-30T05:52:36.467Z,99497.63
2023-12-30T05:57:37.892Z,99490.94
2023-12-30T06:02:39.232Z,99504.66
2023-12-30T06:07:40.684Z,99499.88
2023-12-30T06:12:42.046Z,99490.78
2023-12-30T06:17:43.435Z,99506.00
2023-12-30T06:22:44.772Z,99522.09
2023-12-30T06:27:46.086Z,99534.19
2023-12-30T06:32:47.415Z,99550.31
2023-12-30T06:37:48.992Z,99545.84
2023-12-30T06:42:50.468Z,99544.75
2023-12-30T06:47:51.820Z,99531.47
2023-12-30T06:52:56.814Z,99544.94
2023-12-30T06:57:58.145Z,99547.81
2023-12-30T07:02:59.936Z,99555.34
2023-12-30T07:08:01.418Z,99582.47
2023-12-30T07:13:03.235Z,99599.00
2023-12-30T07:18:04.975Z,99602.13
2023-12-30T07:23:07.577Z,99606.03
2023-12-30T07:28:08.968Z,99618.78
2023-12-30T07:33:10.344Z,99640.25
2023-12-30T07:38:12.022Z,99647.63
2023-12-30T07:43:13.353Z,99654.81
2023-12-30T07:48:14.750Z,99652.66
2023-12-30T07:53:16.105Z,99657.25
2023-12-30T07:58:17.432Z,99648.44
2023-12-30T08:03:18.788Z,99643.66
2023-12-30T08:08:20.771Z,99646.13
2023-12-30T08:13:22.128Z,99657.25
2023-12-30T08:18:23.765Z,99669.72
2023-12-30T08:23:25.161Z,99683.75
2023-12-30T08:28:26.508Z,99696.09
2023-12-30T08:33:27.875Z,99699.81
2023-12-30T08:38:32.644Z,99695.94
2023-12-30T08:43:34.027Z,99700.13
2023-12-30T08:48:35.451Z,99705.19
2023-12-30T08:53:36.858Z,99721.41
2023-12-30T08:58:38.185Z,99735.44
2023-12-30T09:03:39.558Z,99738.34
2023-12-30T09:08:42.379Z,99744.56
2023-12-30T09:13:43.789Z,99748.69
2023-12-30T09:18:45.226Z,99748.50
2023-12-30T09:23:46.555Z,99747.56
2023-12-30T09:28:48.721Z,99751.91
2023-12-30T09:33:50.321Z,99750.81
2023-12-30T09:38:53.455Z,99756.81
2023-12-30T09:43:54.803Z,99746.03
2023-12-30T09:48:56.366Z,99743.97
2023-12-30T09:53:57.982Z,99746.34
2023-12-30T09:58:59.260Z,99755.75
2023-12-30T10:04:00.938Z,99737.66
2023-12-30T10:09:02.249Z,99734.78
2023-12-30T10:14:03.570Z,99736.75
2023-12-30T10:19:11.221Z,99744.28
2023-12-30T10:24:13.069Z,99737.44
2023-12-30T10:29:14.364Z,99763.41
2023-12-30T10:34:20.469Z,99752.53
2023-12-30T10:39:24.501Z,99761.78
2023-12-30T10:44:25.800Z,99767.19
2023-12-30T10:49:27.204Z,99785.50
2023-12-30T10:54:32.092Z,99772.47
2023-12-30T10:59:33.403Z,99810.91
2023-12-30T11:04:34.778Z,99800.78
2023-12-30T11:09:36.846Z,99802.44
2023-12-30T11:14:38.160Z,99801.91
2023-12-30T11:19:40.310Z,99801.09
2023-12-30T11:24:43.555Z,99792.59
2023-12-30T11:29:44.887Z,99796.06
2023-12-30T11:34:49.601Z,99795.28
2023-12-30T11:39:51.364Z,99795.38
2023-12-30T11:44:53.906Z,99803.78
2023-12-30T11:50:03.907Z,99787.53
2023-12-30T11:55:05.430Z,99794.44
2023-12-30T12:00:08.771Z,99782.91
2023-12-30T12:05:10.308Z,99777.81
2023-12-30T12:10:11.678Z,99782.91
2023-12-30T12:15:13.191Z,99772.13
2023-12-30T12:20:14.556Z,99783.75
2023-12-30T12:25:15.895Z,99781.69
2023-12-30T12:30:17.341Z,99773.88
2023-12-30T12:35:18.666Z,99764.53
2023-12-30T12:40:20.004Z,99738.28
2023-12-30T12:45:21.301Z,99730.09
2023-12-30T12:50:22.648Z,99720.06
2023-12-30T12:55:24.013Z,99717.81
2023-12-30T13:00:26.543Z,99717.50
2023-12-30T13:05:27.909Z,99712.63
2023-12-30T13:10:47.226Z,99717.34
2023-12-30T13:15:49.003Z,99727.41
2023-12-30T13:20:50.941Z,99731.72
2023-12-30T13:25:52.331Z,99728.91
2023-12-30T13:30:53.882Z,99733.09
2023-12-30T13:35:55.241Z,99740.31
2023-12-30T13:41:00.976Z,99749.75
2023-12-30T13:46:34.081Z,99743.38
2023-12-30T13:51:50.293Z,99753.78
2023-12-30T13:57:00.957Z,99770.16
2023-12-30T14:02:02.576Z,99775.56
2023-12-30T14:07:07.380Z,99773.50
2023-12-30T14:12:11.406Z,99769.50
2023-12-30T14:17:14.846Z,99765.25
2023-12-30T14:22:17.114Z,99778.28
2023-12-30T14:27:18.456Z,99773.25
2023-12-30T14:32:20.083Z,99783.75
2023-12-30T14:37:21.393Z,99780.56
2023-12-30T14:42:23.082Z,99784.31
2023-12-30T14:47:24.418Z,99787.72
2023-12-30T14:52:25.799Z,99784.47
2023-12-30T14:57:28.913Z,99786.34
2023-12-30T15:02:30.327Z,99791.19
2023-12-30T15:07:31.682Z,99787.97
2023-12-30T15:12:33.008Z,99791.31
2023-12-30T15:17:34.406Z,99793.72
2023-12-30T15:22:36.302Z,99802.94
2023-12-30T15:27:37.731Z,99809.81
2023-12-30T15:32:40.303Z,99820.19
2023-12-30T15:37:44.073Z,99830.84
2023-12-30T15:42:46.410Z,99840.09
2023-12-30T15:47:49.114Z,99840.78
2023-12-30T15:52:50.561Z,99831.56
2023-12-30T15:57:51.975Z,99840.69
2023-12-30T16:02:53.328Z,99848.50
2023-12-30T16:07:54.677Z,99862.03
2023-12-30T16:12:55.968Z,99860.50
2023-12-30T16:17:57.284Z,99861.78
2023-12-30T16:23:03.969Z,99868.78
2023-12-30T16:28:05.524Z,99870.13
2023-12-30T16:33:07.081Z,99868.69
2023-12-30T16:38:08.532Z,99867.84
2023-12-30T16:43:09.826Z,99859.66
2023-12-30T16:48:11.638Z,99862.44
2023-12-30T16:53:13.207Z,99864.81
2023-12-30T16:58:14.529Z,99863.72
2023-12-30T17:03:15.907Z,99855.00
2023-12-30T17:08:17.261Z,99854.53
2023-12-30T17:13:19.152Z,99852.28
2023-12-30T17:18:22.699Z,99865.47
2023-12-30T17:23:24.540Z,99861.56
2023-12-30T17:28:25.838Z,99866.28
2023-12-30T17:33:27.161Z,99868.81
2023-12-30T17:38:28.581Z,99866.22
2023-12-30T17:43:30.287Z,99866.66
2023-12-30T17:48:31.654Z,99870.09
2023-12-30T17:53:32.985Z,99873.66
2023-12-30T17:58:34.758Z,99877.13
2023-12-30T18:03:36.234Z,99879.81
2023-12-30T18:08:37.606Z,99866.75
2023-12-30T18:13:39.044Z,99872.03
2023-12-30T18:18:40.606Z,99879.94
2023-12-30T18:23:41.927Z,99885.38
2023-12-30T18:28:43.328Z,99886.34
2023-12-30T18:33:44.744Z,99887.31
2023-12-30T18:38:46.153Z,99888.50
2023-12-30T18:43:47.579Z,99871.75
2023-12-30T18:48:49.395Z,99877.47
2023-12-30T18:53:52.033Z,99880.69
2023-12-30T18:58:54.894Z,99883.88
2023-12-30T19:03:57.836Z,99883.13
2023-12-30T19:08:59.228Z,99874.97
2023-12-30T19:14:00.656Z,99877.69
2023-12-30T19:19:02.107Z,99868.66
2023-12-30T19:24:05.244Z,99873.78
2023-12-30T19:29:06.545Z,99871.66
2023-12-30T19:34:08.032Z,99870.34
2023-12-30T19:39:09.750Z,99863.44
2023-12-30T19:44:11.881Z,99863.81
2023-12-30T19:49:14.620Z,99865.47
2023-12-30T19:54:16.084Z,99874.50
2023-12-30T19:59:17.617Z,99864.88
2023-12-30T20:04:19.075Z,99859.06
2023-12-30T20:09:20.740Z,99859.91
2023-12-30T20:14:22.079Z,99865.47
2023-12-30T20:19:23.432Z,99857.50
2023-12-30T20:24:27.245Z,99850.03
2023-12-30T20:29:28.667Z,99851.50
2023-12-30T20:34:30.033Z,99848.88
2023-12-30T20:39:32.279Z,99855.28
2023-12-30T20:44:33.559Z,99868.47
2023-12-30T20:49:35.100Z,99871.31
2023-12-30T20:54:39.681Z,99866.41
2023-12-30T20:59:41.676Z,99860.25
2023-12-30T21:04:43.093Z,99855.53
2023-12-30T21:09:44.427Z,99849.38
2023-12-30T21:14:45.713Z,99845.75
2023-12-30T21:19:49.396Z,99843.28
2023-12-30T21:24:51.419Z,99836.44
2023-12-30T21:29:52.733Z,99846.38
2023-12-30T21:34:54.232Z,99839.47
2023-12-30T21:39:55.594Z,99833.81
2023-12-30T21:44:56.981Z,99839.16
2023-12-30T21:49:58.341Z,99834.75
2023-12-30T21:54:59.743Z,99823.09
2023-12-30T22:00:01.285Z,99821.50
2023-12-30T22:05:03.174Z,99827.19
2023-12-30T22:10:04.761Z,99831.06
2023-12-30T22:15:06.957Z,99829.03
2023-12-30T22:20:08.397Z,99834.78
2023-12-30T22:25:09.758Z,99832.91
2023-12-30T22:30:11.198Z,99833.34
2023-12-30T22:35:13.934Z,99823.09
2023-12-30T22:40:15.252Z,99832.50
2023-12-30T22:45:17.170Z,99831.56
2023-12-30T22:50:18.514Z,99829.53
2023-12-30T22:55:19.938Z,99821.69
2023-12-30T23:00:34.445Z,99820.88
2023-12-30T23:05:35.819Z,99821.50
2023-12-30T23:10:37.145Z,99823.59
2023-12-30T23:15:38.549Z,99822.16
2023-12-30T23:20:39.853Z,99830.97
2023-12-30T23:25:41.242Z,99818.78
2023-12-30T23:30:42.709Z,99812.66
2023-12-30T23:35:44.018Z,99806.88
2023-12-30T23:40:45.569Z,99800.38
2023-12-30T23:45:46.897Z,99792.41
2023-12-30T23:50:49.426Z,99781.34
2023-12-30T23:55:50.856Z,99782.22
